F/V Julien Coleou — FHEV — position and weather

sailwx.info

Track history (hours):
 
Tides and Currents Weather Stations Pressure Air Temp Water Temp Dewpoint Dewpoint Depression Visibility Wind Speed Wind Dir Waves Ship Positions

F/V Julien Coleou

Last reported at 2017-Sep-24 14:20 UTC. Time now 2017-Sep-26 02:14 UTC.
Position N 54°08' W 010°25'.

Length 30 m; draft 4.5 m.

Type: Fishing. MMSI: 226158000.

Date/timePositionNaut miles runAvg speedWind from/ knotsBaromVisibWave heightAir tempDewpointWater temp
2017-Sep-24 14:20N 54°08' W 010°25'612.0
2017-Sep-24 13:48N 54°02' W 010°25'411.9
2017-Sep-24 13:29N 53°58' W 010°25'611.7
2017-Sep-24 12:59N 53°52' W 010°24'611.7
2017-Sep-24 12:30N 53°46' W 010°25'611.9
2017-Sep-24 12:00N 53°41' W 010°25'611.8
2017-Sep-24 11:30N 53°35' W 010°26'11911.4
2017-Sep-24 01:02N 51°36' W 010°22'212.0
2017-Sep-24 00:52N 51°34' W 010°20'512.3
2017-Sep-24 00:30N 51°31' W 010°14'612.1
2017-Sep-24 00:00N 51°27' W 010°07'612.1
2017-Sep-23 23:30N 51°23' W 009°60'612.0
2017-Sep-23 23:00N 51°19' W 009°53'611.8
2017-Sep-23 22:30N 51°15' W 009°46'611.7
2017-Sep-23 22:00N 51°11' W 009°39'321 7.3
2017-Sep-22 02:00N 47°44' W 003°22'0 0.0
2017-Sep-22 01:30N 47°44' W 003°22'0 0.0
2017-Sep-22 01:00N 47°44' W 003°22'0 0.0
2017-Sep-22 00:30N 47°44' W 003°22'0 0.0
2017-Sep-22 00:00N 47°44' W 003°22'0 0.0
2017-Sep-21 23:30N 47°44' W 003°22'0 0.0
2017-Sep-21 23:00N 47°44' W 003°22'0 0.0
2017-Sep-21 22:30N 47°44' W 003°22'0 0.0
2017-Sep-21 22:00N 47°44' W 003°22'0 0.0
2017-Sep-21 21:30N 47°44' W 003°22'0 0.0
2017-Sep-21 21:00N 47°44' W 003°22'0 0.0
2017-Sep-21 20:30N 47°44' W 003°22'0 0.0
2017-Sep-21 20:00N 47°44' W 003°22'0 0.0
2017-Sep-21 19:30N 47°44' W 003°22'0 0.0
2017-Sep-21 19:00N 47°44' W 003°22'0 0.0
2017-Sep-21 18:30N 47°44' W 003°22'0 0.0
2017-Sep-21 18:00N 47°44' W 003°22'0 0.0
2017-Sep-21 17:30N 47°44' W 003°22'0 0.0
2017-Sep-21 17:00N 47°44' W 003°22'0 0.0
2017-Sep-21 16:30N 47°44' W 003°22'0 0.0
2017-Sep-21 16:00N 47°44' W 003°22'0 0.0
2017-Sep-21 15:30N 47°44' W 003°22'0 0.0
2017-Sep-21 15:00N 47°44' W 003°22'0 0.0
2017-Sep-21 14:30N 47°44' W 003°22'0 0.0
2017-Sep-21 14:00N 47°44' W 003°22'0 0.0
2017-Sep-21 13:30N 47°44' W 003°22'0 0.0
2017-Sep-21 13:00N 47°44' W 003°22'0 0.0
2017-Sep-21 12:30N 47°44' W 003°22'0 0.0
2017-Sep-21 12:00N 47°44' W 003°22'0 0.0
2017-Sep-21 11:30N 47°44' W 003°22'2 4.3
2017-Sep-21 11:00N 47°42' W 003°23'611.1
2017-Sep-21 10:31N 47°41' W 003°31'1 2.8
2017-Sep-21 10:00N 47°41' W 003°29'5 9.9
2017-Sep-21 09:30N 47°43' W 003°22'1 1.1
2017-Sep-21 08:24N 47°44' W 003°22'0 0.0
2017-Sep-21 08:00N 47°44' W 003°22'0 0.0
2017-Sep-21 07:31N 47°44' W 003°22'0 0.0
2017-Sep-21 07:01N 47°44' W 003°22'0 0.0
2017-Sep-21 06:31N 47°44' W 003°22'0 0.0
2017-Sep-21 06:01N 47°44' W 003°22'0 0.0
2017-Sep-21 05:31N 47°44' W 003°22'0 0.0
2017-Sep-21 05:01N 47°44' W 003°22'0 0.0
2017-Sep-21 04:31N 47°44' W 003°22'0 0.0
2017-Sep-21 04:01N 47°44' W 003°22'0 0.0
2017-Sep-21 03:31N 47°44' W 003°22'0 0.0
2017-Sep-21 03:00N 47°44' W 003°22'0 0.0
2017-Sep-21 02:31N 47°44' W 003°22'0 0.0
2017-Sep-21 02:01N 47°44' W 003°22'0 0.0
2017-Sep-21 01:31N 47°44' W 003°22'0 0.0
2017-Sep-21 01:01N 47°44' W 003°22'0 0.0
2017-Sep-21 00:31N 47°44' W 003°22'0 0.0
2017-Sep-21 00:00N 47°44' W 003°22'0 0.0
2017-Sep-20 23:31N 47°44' W 003°22'0 0.0
2017-Sep-20 23:00N 47°44' W 003°22'0 0.0
2017-Sep-20 22:31N 47°44' W 003°22'0 0.0
2017-Sep-20 22:01N 47°44' W 003°22'0 0.0
2017-Sep-20 21:31N 47°44' W 003°22'0 0.0
2017-Sep-20 21:00N 47°44' W 003°22'0 0.0
2017-Sep-20 20:31N 47°44' W 003°22'0 0.0
2017-Sep-20 20:01N 47°44' W 003°22'0 0.0
2017-Sep-20 19:31N 47°44' W 003°22'0 0.0
2017-Sep-20 19:01N 47°44' W 003°22'0 0.0
2017-Sep-20 18:31N 47°44' W 003°22'0 0.0
2017-Sep-20 18:01N 47°44' W 003°22'0 0.0
2017-Sep-20 17:31N 47°44' W 003°22'0 0.0
2017-Sep-20 17:01N 47°44' W 003°22'0 0.0
2017-Sep-20 16:31N 47°44' W 003°22'0 0.0
2017-Sep-20 16:01N 47°44' W 003°22'0 0.0
2017-Sep-20 15:31N 47°44' W 003°22'0 0.2
2017-Sep-20 15:01N 47°44' W 003°22'0 0.0
2017-Sep-20 14:01N 47°44' W 003°22'0 0.2
2017-Sep-20 13:31N 47°44' W 003°22'0 0.0
2017-Sep-20 13:01N 47°44' W 003°22'0 0.0
2017-Sep-20 12:31N 47°44' W 003°22'0 0.0
2017-Sep-20 12:01N 47°44' W 003°22'0 0.0
2017-Sep-20 11:30N 47°44' W 003°22'0 0.0
2017-Sep-20 11:01N 47°44' W 003°22'0 0.0
2017-Sep-20 10:31N 47°44' W 003°22'0 0.0
2017-Sep-20 10:01N 47°44' W 003°22'0 0.0
2017-Sep-20 09:31N 47°44' W 003°22'0 0.0
2017-Sep-20 09:01N 47°44' W 003°22'0 0.0
2017-Sep-20 08:31N 47°44' W 003°22'0 0.0
2017-Sep-20 08:01N 47°44' W 003°22'0 0.0
2017-Sep-20 07:31N 47°44' W 003°22'0 0.0
2017-Sep-20 07:01N 47°44' W 003°22'0 0.0
2017-Sep-20 06:30N 47°44' W 003°22'0 0.0
2017-Sep-20 06:00N 47°44' W 003°22'0 0.0
2017-Sep-20 05:31N 47°44' W 003°22'0 0.0
2017-Sep-20 05:01N 47°44' W 003°22'0 0.0
2017-Sep-20 04:30N 47°44' W 003°22'0 0.0
2017-Sep-20 04:01N 47°44' W 003°22'0 0.0
2017-Sep-20 03:31N 47°44' W 003°22'0 0.0
2017-Sep-20 03:00N 47°44' W 003°22'0 0.0
2017-Sep-20 02:31N 47°44' W 003°22'0 0.0
2017-Sep-20 02:00N 47°44' W 003°22'0 0.0
2017-Sep-20 01:31N 47°44' W 003°22'0 0.0
2017-Sep-20 01:01N 47°44' W 003°22'0 0.0
2017-Sep-20 00:31N 47°44' W 003°22'0 0.0
2017-Sep-20 00:01N 47°44' W 003°22'0 0.0
2017-Sep-19 23:31N 47°44' W 003°22'0 0.0
2017-Sep-19 23:01N 47°44' W 003°22'0 0.0
2017-Sep-19 22:31N 47°44' W 003°22'0 0.0
2017-Sep-19 22:00N 47°44' W 003°22'0 0.0
2017-Sep-19 21:30N 47°44' W 003°22'0 0.0
2017-Sep-19 21:01N 47°44' W 003°22'0 0.0
2017-Sep-19 20:31N 47°44' W 003°22'0 0.0
2017-Sep-19 20:01N 47°44' W 003°22'0 0.0
2017-Sep-19 19:31N 47°44' W 003°22'0 0.0
2017-Sep-19 19:01N 47°44' W 003°22'0 0.0
2017-Sep-19 18:31N 47°44' W 003°22'0 0.0
2017-Sep-19 18:01N 47°44' W 003°22'0 0.0
2017-Sep-19 17:31N 47°44' W 003°22'0 0.0
2017-Sep-19 17:01N 47°44' W 003°22'0 0.0
2017-Sep-19 16:31N 47°44' W 003°22'0 0.0
2017-Sep-19 16:01N 47°44' W 003°22'0 0.0
2017-Sep-19 15:31N 47°44' W 003°22'0 0.0
2017-Sep-19 15:01N 47°44' W 003°22'0 0.0
2017-Sep-19 14:31N 47°44' W 003°22'0 0.0
2017-Sep-19 14:01N 47°44' W 003°22'0 0.0
2017-Sep-19 13:31N 47°44' W 003°22'0 0.0
2017-Sep-19 13:01N 47°44' W 003°22'0 0.0
2017-Sep-19 12:31N 47°44' W 003°22'0 0.0
2017-Sep-19 12:01N 47°44' W 003°22'0 0.0
2017-Sep-19 11:31N 47°44' W 003°22'0 0.0
2017-Sep-19 11:01N 47°44' W 003°22'0 0.0
2017-Sep-19 10:31N 47°44' W 003°22'0 0.0
2017-Sep-19 10:00N 47°44' W 003°22'0 0.0
2017-Sep-19 09:31N 47°44' W 003°22'0 0.0
2017-Sep-19 09:01N 47°44' W 003°22'0 0.0
2017-Sep-19 08:31N 47°44' W 003°22'0 0.0
2017-Sep-19 08:01N 47°44' W 003°22'0 0.0
2017-Sep-19 07:31N 47°44' W 003°22'0 0.0
2017-Sep-19 07:01N 47°44' W 003°22'0 0.0
2017-Sep-19 06:31N 47°44' W 003°22'0 0.0
2017-Sep-19 06:01N 47°44' W 003°22'0 0.0
2017-Sep-19 05:30N 47°44' W 003°22'0 0.0
2017-Sep-19 05:00N 47°44' W 003°22'0 0.0
2017-Sep-19 04:31N 47°44' W 003°22'0 0.0
2017-Sep-19 04:01N 47°44' W 003°22'0 0.0
2017-Sep-19 03:31N 47°44' W 003°22'0 0.0
2017-Sep-19 03:01N 47°44' W 003°22'0 0.0
2017-Sep-19 02:31N 47°44' W 003°22'0 0.0
2017-Sep-19 02:01N 47°44' W 003°22'0 0.0
2017-Sep-19 01:31N 47°44' W 003°22'0 0.0
2017-Sep-19 01:01N 47°44' W 003°22'0 0.0
2017-Sep-19 00:30N 47°44' W 003°22'0 0.0
2017-Sep-19 00:01N 47°44' W 003°22'0 0.0
2017-Sep-18 23:30N 47°44' W 003°22'0 0.0
2017-Sep-18 23:01N 47°44' W 003°22'0 0.0
2017-Sep-18 22:31N 47°44' W 003°22'0 0.0
2017-Sep-18 22:01N 47°44' W 003°22'0 0.0
2017-Sep-18 21:31N 47°44' W 003°22'0 0.0
2017-Sep-18 21:01N 47°44' W 003°22'0 0.0
2017-Sep-18 20:31N 47°44' W 003°22'0 0.0
2017-Sep-18 20:00N 47°44' W 003°22'0 0.0
2017-Sep-18 19:31N 47°44' W 003°22'0 0.0
2017-Sep-18 19:01N 47°44' W 003°22'0 0.0
2017-Sep-18 18:31N 47°44' W 003°22'0 0.0
2017-Sep-18 18:01N 47°44' W 003°22'0 0.0
2017-Sep-18 17:31N 47°44' W 003°22'0 0.0
2017-Sep-18 17:01N 47°44' W 003°22'0 0.0
2017-Sep-18 16:31N 47°44' W 003°22'0 0.0
2017-Sep-18 16:01N 47°44' W 003°22'0 0.0
2017-Sep-18 15:31N 47°44' W 003°22'0 0.0
2017-Sep-18 15:01N 47°44' W 003°22'0 0.0
2017-Sep-18 14:31N 47°44' W 003°22'0 0.0
2017-Sep-18 14:01N 47°44' W 003°22'0 0.0
2017-Sep-18 13:31N 47°44' W 003°22'0 0.0
2017-Sep-18 13:01N 47°44' W 003°22'0 0.0
2017-Sep-18 12:31N 47°44' W 003°22'0 0.0
2017-Sep-18 12:01N 47°44' W 003°22'0 0.0
2017-Sep-18 11:31N 47°44' W 003°22'0 0.0
2017-Sep-18 11:01N 47°44' W 003°22'0 0.0
2017-Sep-18 10:31N 47°44' W 003°22'0 0.0
2017-Sep-18 10:01N 47°44' W 003°22'0 0.0
2017-Sep-18 09:31N 47°44' W 003°22'0 0.0
2017-Sep-18 09:01N 47°44' W 003°22'0 0.0
2017-Sep-18 08:31N 47°44' W 003°22'0 0.0
2017-Sep-18 08:01N 47°44' W 003°22'0 0.0
2017-Sep-18 07:30N 47°44' W 003°22'0 0.0
2017-Sep-18 07:01N 47°44' W 003°22'0 0.0
2017-Sep-18 06:31N 47°44' W 003°22'0 0.0
2017-Sep-18 06:01N 47°44' W 003°22'0 0.0
2017-Sep-18 05:31N 47°44' W 003°22'0 0.0
2017-Sep-18 05:01N 47°44' W 003°22'0 0.0
2017-Sep-18 04:30N 47°44' W 003°22'0 0.0
2017-Sep-18 04:01N 47°44' W 003°22'0 0.0
2017-Sep-18 03:31N 47°44' W 003°22'0 0.0
2017-Sep-18 03:01N 47°44' W 003°22'0 0.0
2017-Sep-18 02:31N 47°44' W 003°22'0 0.0
2017-Sep-18 02:01N 47°44' W 003°22'0 0.0
2017-Sep-18 01:31N 47°44' W 003°22'0 0.0
2017-Sep-18 01:00N 47°44' W 003°22'0 0.0
2017-Sep-18 00:31N 47°44' W 003°22'0 0.0
2017-Sep-18 00:01N 47°44' W 003°22'0 0.0
2017-Sep-17 23:31N 47°44' W 003°22'0 0.0
2017-Sep-17 23:01N 47°44' W 003°22'0 0.0
2017-Sep-17 22:31N 47°44' W 003°22'0 0.0
2017-Sep-17 22:01N 47°44' W 003°22'0 0.0
2017-Sep-17 21:31N 47°44' W 003°22'0 0.0
2017-Sep-17 21:01N 47°44' W 003°22'0 0.0
2017-Sep-17 20:31N 47°44' W 003°22'0 0.0
2017-Sep-17 20:01N 47°44' W 003°22'0 0.0
2017-Sep-17 19:31N 47°44' W 003°22'0 0.0
2017-Sep-17 19:01N 47°44' W 003°22'0 0.0
2017-Sep-17 18:31N 47°44' W 003°22'0 0.0
2017-Sep-17 18:01N 47°44' W 003°22'0 0.0
2017-Sep-17 17:31N 47°44' W 003°22'0 0.0
2017-Sep-17 17:01N 47°44' W 003°22'0 0.0
2017-Sep-17 16:30N 47°44' W 003°22'0 0.0
2017-Sep-17 16:01N 47°44' W 003°22'0 0.0
2017-Sep-17 15:30N 47°44' W 003°22'0 0.0
2017-Sep-17 15:01N 47°44' W 003°22'0 0.0
2017-Sep-17 14:30N 47°44' W 003°22'0 0.0
2017-Sep-17 14:01N 47°44' W 003°22'0 0.0
2017-Sep-17 13:31N 47°44' W 003°22'0 0.0
2017-Sep-17 13:01N 47°44' W 003°22'0 0.0
2017-Sep-17 12:31N 47°44' W 003°22'0 0.0
2017-Sep-17 12:01N 47°44' W 003°22'0 0.0
2017-Sep-17 11:31N 47°44' W 003°22'0 0.0
2017-Sep-17 11:01N 47°44' W 003°22'0 0.0
2017-Sep-17 10:31N 47°44' W 003°22'0 0.0
2017-Sep-17 10:01N 47°44' W 003°22'0 0.0
2017-Sep-17 09:31N 47°44' W 003°22'0 0.0
2017-Sep-17 09:01N 47°44' W 003°22'0 0.0
2017-Sep-17 08:31N 47°44' W 003°22'0 0.0
2017-Sep-17 08:01N 47°44' W 003°22'0 0.0
2017-Sep-17 07:31N 47°44' W 003°22'0 0.0
2017-Sep-17 07:01N 47°44' W 003°22'0 0.0
2017-Sep-17 06:31N 47°44' W 003°22'0 0.0
2017-Sep-17 06:01N 47°44' W 003°22'0 0.0
2017-Sep-17 05:31N 47°44' W 003°22'0 0.0
2017-Sep-17 05:01N 47°44' W 003°22'0 0.0
2017-Sep-17 04:31N 47°44' W 003°22'0 0.0
2017-Sep-17 04:01N 47°44' W 003°22'0 0.0
2017-Sep-17 03:31N 47°44' W 003°22'0 0.0
2017-Sep-17 03:01N 47°44' W 003°22'0 0.0
2017-Sep-17 02:31N 47°44' W 003°22'0 0.0
2017-Sep-17 02:01N 47°44' W 003°22'0 0.0
2017-Sep-17 01:31N 47°44' W 003°22'0 0.0
2017-Sep-17 01:01N 47°44' W 003°22'0 0.0
2017-Sep-17 00:31N 47°44' W 003°22'0 0.0
2017-Sep-17 00:01N 47°44' W 003°22'0 0.0
2017-Sep-16 23:31N 47°44' W 003°22'0 0.0
2017-Sep-16 23:01N 47°44' W 003°22'0 0.0
2017-Sep-16 22:31N 47°44' W 003°22'0 0.0
2017-Sep-16 22:01N 47°44' W 003°22'0 0.0
2017-Sep-16 21:30N 47°44' W 003°22'0 0.0
2017-Sep-16 21:01N 47°44' W 003°22'0 0.0
2017-Sep-16 20:31N 47°44' W 003°22'0 0.0
2017-Sep-16 20:01N 47°44' W 003°22'0 0.0
2017-Sep-16 19:31N 47°44' W 003°22'0 0.0
2017-Sep-16 19:01N 47°44' W 003°22'0 0.0
2017-Sep-16 18:31N 47°44' W 003°22'0 0.0
2017-Sep-16 18:01N 47°44' W 003°22'0 0.0
2017-Sep-16 17:31N 47°44' W 003°22'0 0.0
2017-Sep-16 17:01N 47°44' W 003°22'0 0.0
2017-Sep-16 16:31N 47°44' W 003°22'0 0.0
2017-Sep-16 16:01N 47°44' W 003°22'0 0.0
2017-Sep-16 15:31N 47°44' W 003°22'0 0.0
2017-Sep-16 15:01N 47°44' W 003°22'0 0.0
2017-Sep-16 14:30N 47°44' W 003°22'0 0.0
2017-Sep-16 14:01N 47°44' W 003°22'0 0.0
2017-Sep-16 13:31N 47°44' W 003°22'0 0.0
2017-Sep-16 13:01N 47°44' W 003°22'0 0.0
2017-Sep-16 12:31N 47°44' W 003°22'0 0.0
2017-Sep-16 12:01N 47°44' W 003°22'0 0.0
2017-Sep-16 11:31N 47°44' W 003°22'0 0.0
2017-Sep-16 11:01N 47°44' W 003°22'0 0.0
2017-Sep-16 10:31N 47°44' W 003°22'0 0.0
2017-Sep-16 10:00N 47°44' W 003°22'0 0.0
2017-Sep-16 09:31N 47°44' W 003°22'0 0.0
2017-Sep-16 09:01N 47°44' W 003°22'0 0.0
2017-Sep-16 08:31N 47°44' W 003°22'0 0.0
2017-Sep-16 08:01N 47°44' W 003°22'0 0.0
2017-Sep-16 07:31N 47°44' W 003°22'0 0.0
2017-Sep-16 07:01N 47°44' W 003°22'0 0.0
2017-Sep-16 06:31N 47°44' W 003°22'0 0.0
2017-Sep-16 06:00N 47°44' W 003°22'0 0.0
2017-Sep-16 05:31N 47°44' W 003°22'0 0.0
2017-Sep-16 05:01N 47°44' W 003°22'0 0.0
2017-Sep-16 04:30N 47°44' W 003°22'0 0.0
2017-Sep-16 04:01N 47°44' W 003°22'0 0.0
2017-Sep-16 03:31N 47°44' W 003°22'0 0.0
2017-Sep-16 03:01N 47°44' W 003°22'0 0.0
2017-Sep-16 02:31N 47°44' W 003°22'0 0.0
2017-Sep-16 02:01N 47°44' W 003°22'0 0.0
2017-Sep-16 01:31N 47°44' W 003°22'0 0.0
2017-Sep-16 01:01N 47°44' W 003°22'0 0.0
2017-Sep-16 00:31N 47°44' W 003°22'0 0.0
2017-Sep-16 00:01N 47°44' W 003°22'0 0.0
2017-Sep-15 23:31N 47°44' W 003°22'0 0.0
2017-Sep-15 23:01N 47°44' W 003°22'0 0.0
2017-Sep-15 22:31N 47°44' W 003°22'0 0.0
2017-Sep-15 22:01N 47°44' W 003°22'0 0.0
2017-Sep-15 21:30N 47°44' W 003°22'0 0.0
2017-Sep-15 21:01N 47°44' W 003°22'0 0.0
2017-Sep-15 20:31N 47°44' W 003°22'0 0.0
2017-Sep-15 20:01N 47°44' W 003°22'0 0.0
2017-Sep-15 19:31N 47°44' W 003°22'0 0.0
2017-Sep-15 19:01N 47°44' W 003°22'0 0.0
2017-Sep-15 18:31N 47°44' W 003°22'0 0.0
2017-Sep-15 18:01N 47°44' W 003°22'0 0.0
2017-Sep-15 17:31N 47°44' W 003°22'0 0.0
2017-Sep-15 17:01N 47°44' W 003°22'0 0.0
2017-Sep-15 16:31N 47°44' W 003°22'0 0.0
2017-Sep-15 16:01N 47°44' W 003°22'0 0.0
2017-Sep-15 15:31N 47°44' W 003°22'0 0.0
2017-Sep-15 15:01N 47°44' W 003°22'0 0.0
2017-Sep-15 14:31N 47°44' W 003°22'0 0.0
2017-Sep-15 14:01N 47°44' W 003°22'0 0.0
2017-Sep-15 13:30N 47°44' W 003°22'0 0.0
2017-Sep-15 13:01N 47°44' W 003°22'0 0.0
2017-Sep-15 12:31N 47°44' W 003°22'0 0.0
2017-Sep-15 12:01N 47°44' W 003°22'0 0.0
2017-Sep-15 11:31N 47°44' W 003°22'0 0.0
2017-Sep-15 11:00N 47°44' W 003°22'0 0.0
2017-Sep-15 10:31N 47°44' W 003°22'0 0.0
2017-Sep-15 10:01N 47°44' W 003°22'0 0.0
2017-Sep-15 09:31N 47°44' W 003°22'0 0.0
2017-Sep-15 09:01N 47°44' W 003°22'0 0.0
2017-Sep-15 08:30N 47°44' W 003°22'0 0.0
2017-Sep-15 08:01N 47°44' W 003°22'0 0.0
2017-Sep-15 07:31N 47°44' W 003°22'0 0.0
2017-Sep-15 07:00N 47°44' W 003°22'0 0.0
2017-Sep-15 06:31N 47°44' W 003°22'0 0.0
2017-Sep-15 06:01N 47°44' W 003°22'0 0.0
2017-Sep-15 05:31N 47°44' W 003°22'0 0.0
2017-Sep-15 05:01N 47°44' W 003°22'0 0.0
2017-Sep-15 04:31N 47°44' W 003°22'0 0.0
2017-Sep-15 04:01N 47°44' W 003°22'0 0.0
2017-Sep-15 03:31N 47°44' W 003°22'0 0.0
2017-Sep-15 03:01N 47°44' W 003°22'0 0.0
2017-Sep-15 02:31N 47°44' W 003°22'0 0.0
2017-Sep-15 02:01N 47°44' W 003°22'0 0.0
2017-Sep-15 01:31N 47°44' W 003°22'0 0.0
2017-Sep-15 01:01N 47°44' W 003°22'0 0.0
2017-Sep-15 00:31N 47°44' W 003°22'0 0.0
2017-Sep-15 00:01N 47°44' W 003°22'0 0.0
2017-Sep-14 23:30N 47°44' W 003°22'0 0.0
2017-Sep-14 23:01N 47°44' W 003°22'0 0.0
2017-Sep-14 22:31N 47°44' W 003°22'0 0.0
2017-Sep-14 22:00N 47°44' W 003°22'0 0.0
2017-Sep-14 21:31N 47°44' W 003°22'0 0.0
2017-Sep-14 21:01N 47°44' W 003°22'0 0.0
2017-Sep-14 20:31N 47°44' W 003°22'0 0.0
2017-Sep-14 20:00N 47°44' W 003°22'0 0.0
2017-Sep-14 19:30N 47°44' W 003°22'0 0.0
2017-Sep-14 19:01N 47°44' W 003°22'0 0.0
2017-Sep-14 18:31N 47°44' W 003°22'0 0.0
2017-Sep-14 18:01N 47°44' W 003°22'0 0.0
2017-Sep-14 17:31N 47°44' W 003°22'0 0.0
2017-Sep-14 17:01N 47°44' W 003°22'0 0.0
2017-Sep-14 16:31N 47°44' W 003°22'0 0.0
2017-Sep-14 16:00N 47°44' W 003°22'0 0.0
2017-Sep-14 15:31N 47°44' W 003°22'0 0.0
2017-Sep-14 15:01N 47°44' W 003°22'0 0.0
2017-Sep-14 14:30N 47°44' W 003°22'  
Track history (hours):
 
Tides and Currents Weather Stations Pressure Air Temp Water Temp Dewpoint Dewpoint Depression Visibility Wind Speed Wind Dir Waves Ship Positions

F/V Julien Coleou

Last reported at 2017-Sep-24 14:20 UTC. Time now 2017-Sep-26 02:14 UTC.
Position N 54°08' W 010°25'.

Length 30 m; draft 4.5 m.

Type: Fishing. MMSI: 226158000.

Date/timePositionNaut miles runAvg speedWind from/ knotsBaromVisibWave heightAir tempDewpointWater temp
2017-Sep-24 14:20N 54°08' W 010°25'612.0
2017-Sep-24 13:48N 54°02' W 010°25'411.9
2017-Sep-24 13:29N 53°58' W 010°25'611.7
2017-Sep-24 12:59N 53°52' W 010°24'611.7
2017-Sep-24 12:30N 53°46' W 010°25'611.9
2017-Sep-24 12:00N 53°41' W 010°25'611.8
2017-Sep-24 11:30N 53°35' W 010°26'11911.4
2017-Sep-24 01:02N 51°36' W 010°22'212.0
2017-Sep-24 00:52N 51°34' W 010°20'512.3
2017-Sep-24 00:30N 51°31' W 010°14'612.1
2017-Sep-24 00:00N 51°27' W 010°07'612.1
2017-Sep-23 23:30N 51°23' W 009°60'612.0
2017-Sep-23 23:00N 51°19' W 009°53'611.8
2017-Sep-23 22:30N 51°15' W 009°46'611.7
2017-Sep-23 22:00N 51°11' W 009°39'321 7.3
2017-Sep-22 02:00N 47°44' W 003°22'0 0.0
2017-Sep-22 01:30N 47°44' W 003°22'0 0.0
2017-Sep-22 01:00N 47°44' W 003°22'0 0.0
2017-Sep-22 00:30N 47°44' W 003°22'0 0.0
2017-Sep-22 00:00N 47°44' W 003°22'0 0.0
2017-Sep-21 23:30N 47°44' W 003°22'0 0.0
2017-Sep-21 23:00N 47°44' W 003°22'0 0.0
2017-Sep-21 22:30N 47°44' W 003°22'0 0.0
2017-Sep-21 22:00N 47°44' W 003°22'0 0.0
2017-Sep-21 21:30N 47°44' W 003°22'0 0.0
2017-Sep-21 21:00N 47°44' W 003°22'0 0.0
2017-Sep-21 20:30N 47°44' W 003°22'0 0.0
2017-Sep-21 20:00N 47°44' W 003°22'0 0.0
2017-Sep-21 19:30N 47°44' W 003°22'0 0.0
2017-Sep-21 19:00N 47°44' W 003°22'0 0.0
2017-Sep-21 18:30N 47°44' W 003°22'0 0.0
2017-Sep-21 18:00N 47°44' W 003°22'0 0.0
2017-Sep-21 17:30N 47°44' W 003°22'0 0.0
2017-Sep-21 17:00N 47°44' W 003°22'0 0.0
2017-Sep-21 16:30N 47°44' W 003°22'0 0.0
2017-Sep-21 16:00N 47°44' W 003°22'0 0.0
2017-Sep-21 15:30N 47°44' W 003°22'0 0.0
2017-Sep-21 15:00N 47°44' W 003°22'0 0.0
2017-Sep-21 14:30N 47°44' W 003°22'0 0.0
2017-Sep-21 14:00N 47°44' W 003°22'0 0.0
2017-Sep-21 13:30N 47°44' W 003°22'0 0.0
2017-Sep-21 13:00N 47°44' W 003°22'0 0.0
2017-Sep-21 12:30N 47°44' W 003°22'0 0.0
2017-Sep-21 12:00N 47°44' W 003°22'0 0.0
2017-Sep-21 11:30N 47°44' W 003°22'2 4.3
2017-Sep-21 11:00N 47°42' W 003°23'611.1
2017-Sep-21 10:31N 47°41' W 003°31'1 2.8
2017-Sep-21 10:00N 47°41' W 003°29'5 9.9
2017-Sep-21 09:30N 47°43' W 003°22'1 1.1
2017-Sep-21 08:24N 47°44' W 003°22'0 0.0
2017-Sep-21 08:00N 47°44' W 003°22'0 0.0
2017-Sep-21 07:31N 47°44' W 003°22'0 0.0
2017-Sep-21 07:01N 47°44' W 003°22'0 0.0
2017-Sep-21 06:31N 47°44' W 003°22'0 0.0
2017-Sep-21 06:01N 47°44' W 003°22'0 0.0
2017-Sep-21 05:31N 47°44' W 003°22'0 0.0
2017-Sep-21 05:01N 47°44' W 003°22'0 0.0
2017-Sep-21 04:31N 47°44' W 003°22'0 0.0
2017-Sep-21 04:01N 47°44' W 003°22'0 0.0
2017-Sep-21 03:31N 47°44' W 003°22'0 0.0
2017-Sep-21 03:00N 47°44' W 003°22'0 0.0
2017-Sep-21 02:31N 47°44' W 003°22'0 0.0
2017-Sep-21 02:01N 47°44' W 003°22'0 0.0
2017-Sep-21 01:31N 47°44' W 003°22'0 0.0
2017-Sep-21 01:01N 47°44' W 003°22'0 0.0
2017-Sep-21 00:31N 47°44' W 003°22'0 0.0
2017-Sep-21 00:00N 47°44' W 003°22'0 0.0
2017-Sep-20 23:31N 47°44' W 003°22'0 0.0
2017-Sep-20 23:00N 47°44' W 003°22'0 0.0
2017-Sep-20 22:31N 47°44' W 003°22'0 0.0
2017-Sep-20 22:01N 47°44' W 003°22'0 0.0
2017-Sep-20 21:31N 47°44' W 003°22'0 0.0
2017-Sep-20 21:00N 47°44' W 003°22'0 0.0
2017-Sep-20 20:31N 47°44' W 003°22'0 0.0
2017-Sep-20 20:01N 47°44' W 003°22'0 0.0
2017-Sep-20 19:31N 47°44' W 003°22'0 0.0
2017-Sep-20 19:01N 47°44' W 003°22'0 0.0
2017-Sep-20 18:31N 47°44' W 003°22'0 0.0
2017-Sep-20 18:01N 47°44' W 003°22'0 0.0
2017-Sep-20 17:31N 47°44' W 003°22'0 0.0
2017-Sep-20 17:01N 47°44' W 003°22'0 0.0
2017-Sep-20 16:31N 47°44' W 003°22'0 0.0
2017-Sep-20 16:01N 47°44' W 003°22'0 0.0
2017-Sep-20 15:31N 47°44' W 003°22'0 0.2
2017-Sep-20 15:01N 47°44' W 003°22'0 0.0
2017-Sep-20 14:01N 47°44' W 003°22'0 0.2
2017-Sep-20 13:31N 47°44' W 003°22'0 0.0
2017-Sep-20 13:01N 47°44' W 003°22'0 0.0
2017-Sep-20 12:31N 47°44' W 003°22'0 0.0
2017-Sep-20 12:01N 47°44' W 003°22'0 0.0
2017-Sep-20 11:30N 47°44' W 003°22'0 0.0
2017-Sep-20 11:01N 47°44' W 003°22'0 0.0
2017-Sep-20 10:31N 47°44' W 003°22'0 0.0
2017-Sep-20 10:01N 47°44' W 003°22'0 0.0
2017-Sep-20 09:31N 47°44' W 003°22'0 0.0
2017-Sep-20 09:01N 47°44' W 003°22'0 0.0
2017-Sep-20 08:31N 47°44' W 003°22'0 0.0
2017-Sep-20 08:01N 47°44' W 003°22'0 0.0
2017-Sep-20 07:31N 47°44' W 003°22'0 0.0
2017-Sep-20 07:01N 47°44' W 003°22'0 0.0
2017-Sep-20 06:30N 47°44' W 003°22'0 0.0
2017-Sep-20 06:00N 47°44' W 003°22'0 0.0
2017-Sep-20 05:31N 47°44' W 003°22'0 0.0
2017-Sep-20 05:01N 47°44' W 003°22'0 0.0
2017-Sep-20 04:30N 47°44' W 003°22'0 0.0
2017-Sep-20 04:01N 47°44' W 003°22'0 0.0
2017-Sep-20 03:31N 47°44' W 003°22'0 0.0
2017-Sep-20 03:00N 47°44' W 003°22'0 0.0
2017-Sep-20 02:31N 47°44' W 003°22'0 0.0
2017-Sep-20 02:00N 47°44' W 003°22'0 0.0
2017-Sep-20 01:31N 47°44' W 003°22'0 0.0
2017-Sep-20 01:01N 47°44' W 003°22'0 0.0
2017-Sep-20 00:31N 47°44' W 003°22'0 0.0
2017-Sep-20 00:01N 47°44' W 003°22'0 0.0
2017-Sep-19 23:31N 47°44' W 003°22'0 0.0
2017-Sep-19 23:01N 47°44' W 003°22'0 0.0
2017-Sep-19 22:31N 47°44' W 003°22'0 0.0
2017-Sep-19 22:00N 47°44' W 003°22'0 0.0
2017-Sep-19 21:30N 47°44' W 003°22'0 0.0
2017-Sep-19 21:01N 47°44' W 003°22'0 0.0
2017-Sep-19 20:31N 47°44' W 003°22'0 0.0
2017-Sep-19 20:01N 47°44' W 003°22'0 0.0
2017-Sep-19 19:31N 47°44' W 003°22'0 0.0
2017-Sep-19 19:01N 47°44' W 003°22'0 0.0
2017-Sep-19 18:31N 47°44' W 003°22'0 0.0
2017-Sep-19 18:01N 47°44' W 003°22'0 0.0
2017-Sep-19 17:31N 47°44' W 003°22'0 0.0
2017-Sep-19 17:01N 47°44' W 003°22'0 0.0
2017-Sep-19 16:31N 47°44' W 003°22'0 0.0
2017-Sep-19 16:01N 47°44' W 003°22'0 0.0
2017-Sep-19 15:31N 47°44' W 003°22'0 0.0
2017-Sep-19 15:01N 47°44' W 003°22'0 0.0
2017-Sep-19 14:31N 47°44' W 003°22'0 0.0
2017-Sep-19 14:01N 47°44' W 003°22'0 0.0
2017-Sep-19 13:31N 47°44' W 003°22'0 0.0
2017-Sep-19 13:01N 47°44' W 003°22'0 0.0
2017-Sep-19 12:31N 47°44' W 003°22'0 0.0
2017-Sep-19 12:01N 47°44' W 003°22'0 0.0
2017-Sep-19 11:31N 47°44' W 003°22'0 0.0
2017-Sep-19 11:01N 47°44' W 003°22'0 0.0
2017-Sep-19 10:31N 47°44' W 003°22'0 0.0
2017-Sep-19 10:00N 47°44' W 003°22'0 0.0
2017-Sep-19 09:31N 47°44' W 003°22'0 0.0
2017-Sep-19 09:01N 47°44' W 003°22'0 0.0
2017-Sep-19 08:31N 47°44' W 003°22'0 0.0
2017-Sep-19 08:01N 47°44' W 003°22'0 0.0
2017-Sep-19 07:31N 47°44' W 003°22'0 0.0
2017-Sep-19 07:01N 47°44' W 003°22'0 0.0
2017-Sep-19 06:31N 47°44' W 003°22'0 0.0
2017-Sep-19 06:01N 47°44' W 003°22'0 0.0
2017-Sep-19 05:30N 47°44' W 003°22'0 0.0
2017-Sep-19 05:00N 47°44' W 003°22'0 0.0
2017-Sep-19 04:31N 47°44' W 003°22'0 0.0
2017-Sep-19 04:01N 47°44' W 003°22'0 0.0
2017-Sep-19 03:31N 47°44' W 003°22'0 0.0
2017-Sep-19 03:01N 47°44' W 003°22'0 0.0
2017-Sep-19 02:31N 47°44' W 003°22'0 0.0
2017-Sep-19 02:01N 47°44' W 003°22'0 0.0
2017-Sep-19 01:31N 47°44' W 003°22'0 0.0
2017-Sep-19 01:01N 47°44' W 003°22'0 0.0
2017-Sep-19 00:30N 47°44' W 003°22'0 0.0
2017-Sep-19 00:01N 47°44' W 003°22'0 0.0
2017-Sep-18 23:30N 47°44' W 003°22'0 0.0
2017-Sep-18 23:01N 47°44' W 003°22'0 0.0
2017-Sep-18 22:31N 47°44' W 003°22'0 0.0
2017-Sep-18 22:01N 47°44' W 003°22'0 0.0
2017-Sep-18 21:31N 47°44' W 003°22'0 0.0
2017-Sep-18 21:01N 47°44' W 003°22'0 0.0
2017-Sep-18 20:31N 47°44' W 003°22'0 0.0
2017-Sep-18 20:00N 47°44' W 003°22'0 0.0
2017-Sep-18 19:31N 47°44' W 003°22'0 0.0
2017-Sep-18 19:01N 47°44' W 003°22'0 0.0
2017-Sep-18 18:31N 47°44' W 003°22'0 0.0
2017-Sep-18 18:01N 47°44' W 003°22'0 0.0
2017-Sep-18 17:31N 47°44' W 003°22'0 0.0
2017-Sep-18 17:01N 47°44' W 003°22'0 0.0
2017-Sep-18 16:31N 47°44' W 003°22'0 0.0
2017-Sep-18 16:01N 47°44' W 003°22'0 0.0
2017-Sep-18 15:31N 47°44' W 003°22'0 0.0
2017-Sep-18 15:01N 47°44' W 003°22'0 0.0
2017-Sep-18 14:31N 47°44' W 003°22'0 0.0
2017-Sep-18 14:01N 47°44' W 003°22'0 0.0
2017-Sep-18 13:31N 47°44' W 003°22'0 0.0
2017-Sep-18 13:01N 47°44' W 003°22'0 0.0
2017-Sep-18 12:31N 47°44' W 003°22'0 0.0
2017-Sep-18 12:01N 47°44' W 003°22'0 0.0
2017-Sep-18 11:31N 47°44' W 003°22'0 0.0
2017-Sep-18 11:01N 47°44' W 003°22'0 0.0
2017-Sep-18 10:31N 47°44' W 003°22'0 0.0
2017-Sep-18 10:01N 47°44' W 003°22'0 0.0
2017-Sep-18 09:31N 47°44' W 003°22'0 0.0
2017-Sep-18 09:01N 47°44' W 003°22'0 0.0
2017-Sep-18 08:31N 47°44' W 003°22'0 0.0
2017-Sep-18 08:01N 47°44' W 003°22'0 0.0
2017-Sep-18 07:30N 47°44' W 003°22'0 0.0
2017-Sep-18 07:01N 47°44' W 003°22'0 0.0
2017-Sep-18 06:31N 47°44' W 003°22'0 0.0
2017-Sep-18 06:01N 47°44' W 003°22'0 0.0
2017-Sep-18 05:31N 47°44' W 003°22'0 0.0
2017-Sep-18 05:01N 47°44' W 003°22'0 0.0
2017-Sep-18 04:30N 47°44' W 003°22'0 0.0
2017-Sep-18 04:01N 47°44' W 003°22'0 0.0
2017-Sep-18 03:31N 47°44' W 003°22'0 0.0
2017-Sep-18 03:01N 47°44' W 003°22'0 0.0
2017-Sep-18 02:31N 47°44' W 003°22'0 0.0
2017-Sep-18 02:01N 47°44' W 003°22'0 0.0
2017-Sep-18 01:31N 47°44' W 003°22'0 0.0
2017-Sep-18 01:00N 47°44' W 003°22'0 0.0
2017-Sep-18 00:31N 47°44' W 003°22'0 0.0
2017-Sep-18 00:01N 47°44' W 003°22'0 0.0
2017-Sep-17 23:31N 47°44' W 003°22'0 0.0
2017-Sep-17 23:01N 47°44' W 003°22'0 0.0
2017-Sep-17 22:31N 47°44' W 003°22'0 0.0
2017-Sep-17 22:01N 47°44' W 003°22'0 0.0
2017-Sep-17 21:31N 47°44' W 003°22'0 0.0
2017-Sep-17 21:01N 47°44' W 003°22'0 0.0
2017-Sep-17 20:31N 47°44' W 003°22'0 0.0
2017-Sep-17 20:01N 47°44' W 003°22'0 0.0
2017-Sep-17 19:31N 47°44' W 003°22'0 0.0
2017-Sep-17 19:01N 47°44' W 003°22'0 0.0
2017-Sep-17 18:31N 47°44' W 003°22'0 0.0
2017-Sep-17 18:01N 47°44' W 003°22'0 0.0
2017-Sep-17 17:31N 47°44' W 003°22'0 0.0
2017-Sep-17 17:01N 47°44' W 003°22'0 0.0
2017-Sep-17 16:30N 47°44' W 003°22'0 0.0
2017-Sep-17 16:01N 47°44' W 003°22'0 0.0
2017-Sep-17 15:30N 47°44' W 003°22'0 0.0
2017-Sep-17 15:01N 47°44' W 003°22'0 0.0
2017-Sep-17 14:30N 47°44' W 003°22'0 0.0
2017-Sep-17 14:01N 47°44' W 003°22'0 0.0
2017-Sep-17 13:31N 47°44' W 003°22'0 0.0
2017-Sep-17 13:01N 47°44' W 003°22'0 0.0
2017-Sep-17 12:31N 47°44' W 003°22'0 0.0
2017-Sep-17 12:01N 47°44' W 003°22'0 0.0
2017-Sep-17 11:31N 47°44' W 003°22'0 0.0
2017-Sep-17 11:01N 47°44' W 003°22'0 0.0
2017-Sep-17 10:31N 47°44' W 003°22'0 0.0
2017-Sep-17 10:01N 47°44' W 003°22'0 0.0
2017-Sep-17 09:31N 47°44' W 003°22'0 0.0
2017-Sep-17 09:01N 47°44' W 003°22'0 0.0
2017-Sep-17 08:31N 47°44' W 003°22'0 0.0
2017-Sep-17 08:01N 47°44' W 003°22'0 0.0
2017-Sep-17 07:31N 47°44' W 003°22'0 0.0
2017-Sep-17 07:01N 47°44' W 003°22'0 0.0
2017-Sep-17 06:31N 47°44' W 003°22'0 0.0
2017-Sep-17 06:01N 47°44' W 003°22'0 0.0
2017-Sep-17 05:31N 47°44' W 003°22'0 0.0
2017-Sep-17 05:01N 47°44' W 003°22'0 0.0
2017-Sep-17 04:31N 47°44' W 003°22'0 0.0
2017-Sep-17 04:01N 47°44' W 003°22'0 0.0
2017-Sep-17 03:31N 47°44' W 003°22'0 0.0
2017-Sep-17 03:01N 47°44' W 003°22'0 0.0
2017-Sep-17 02:31N 47°44' W 003°22'0 0.0
2017-Sep-17 02:01N 47°44' W 003°22'0 0.0
2017-Sep-17 01:31N 47°44' W 003°22'0 0.0
2017-Sep-17 01:01N 47°44' W 003°22'0 0.0
2017-Sep-17 00:31N 47°44' W 003°22'0 0.0
2017-Sep-17 00:01N 47°44' W 003°22'0 0.0
2017-Sep-16 23:31N 47°44' W 003°22'0 0.0
2017-Sep-16 23:01N 47°44' W 003°22'0 0.0
2017-Sep-16 22:31N 47°44' W 003°22'0 0.0
2017-Sep-16 22:01N 47°44' W 003°22'0 0.0
2017-Sep-16 21:30N 47°44' W 003°22'0 0.0
2017-Sep-16 21:01N 47°44' W 003°22'0 0.0
2017-Sep-16 20:31N 47°44' W 003°22'0 0.0
2017-Sep-16 20:01N 47°44' W 003°22'0 0.0
2017-Sep-16 19:31N 47°44' W 003°22'0 0.0
2017-Sep-16 19:01N 47°44' W 003°22'0 0.0
2017-Sep-16 18:31N 47°44' W 003°22'0 0.0
2017-Sep-16 18:01N 47°44' W 003°22'0 0.0
2017-Sep-16 17:31N 47°44' W 003°22'0 0.0
2017-Sep-16 17:01N 47°44' W 003°22'0 0.0
2017-Sep-16 16:31N 47°44' W 003°22'0 0.0
2017-Sep-16 16:01N 47°44' W 003°22'0 0.0
2017-Sep-16 15:31N 47°44' W 003°22'0 0.0
2017-Sep-16 15:01N 47°44' W 003°22'0 0.0
2017-Sep-16 14:30N 47°44' W 003°22'0 0.0
2017-Sep-16 14:01N 47°44' W 003°22'0 0.0
2017-Sep-16 13:31N 47°44' W 003°22'0 0.0
2017-Sep-16 13:01N 47°44' W 003°22'0 0.0
2017-Sep-16 12:31N 47°44' W 003°22'0 0.0
2017-Sep-16 12:01N 47°44' W 003°22'0 0.0
2017-Sep-16 11:31N 47°44' W 003°22'0 0.0
2017-Sep-16 11:01N 47°44' W 003°22'0 0.0
2017-Sep-16 10:31N 47°44' W 003°22'0 0.0
2017-Sep-16 10:00N 47°44' W 003°22'0 0.0
2017-Sep-16 09:31N 47°44' W 003°22'0 0.0
2017-Sep-16 09:01N 47°44' W 003°22'0 0.0
2017-Sep-16 08:31N 47°44' W 003°22'0 0.0
2017-Sep-16 08:01N 47°44' W 003°22'0 0.0
2017-Sep-16 07:31N 47°44' W 003°22'0 0.0
2017-Sep-16 07:01N 47°44' W 003°22'0 0.0
2017-Sep-16 06:31N 47°44' W 003°22'0 0.0
2017-Sep-16 06:00N 47°44' W 003°22'0 0.0
2017-Sep-16 05:31N 47°44' W 003°22'0 0.0
2017-Sep-16 05:01N 47°44' W 003°22'0 0.0
2017-Sep-16 04:30N 47°44' W 003°22'0 0.0
2017-Sep-16 04:01N 47°44' W 003°22'0 0.0
2017-Sep-16 03:31N 47°44' W 003°22'0 0.0
2017-Sep-16 03:01N 47°44' W 003°22'0 0.0
2017-Sep-16 02:31N 47°44' W 003°22'0 0.0
2017-Sep-16 02:01N 47°44' W 003°22'0 0.0
2017-Sep-16 01:31N 47°44' W 003°22'0 0.0
2017-Sep-16 01:01N 47°44' W 003°22'0 0.0
2017-Sep-16 00:31N 47°44' W 003°22'0 0.0
2017-Sep-16 00:01N 47°44' W 003°22'0 0.0
2017-Sep-15 23:31N 47°44' W 003°22'0 0.0
2017-Sep-15 23:01N 47°44' W 003°22'0 0.0
2017-Sep-15 22:31N 47°44' W 003°22'0 0.0
2017-Sep-15 22:01N 47°44' W 003°22'0 0.0
2017-Sep-15 21:30N 47°44' W 003°22'0 0.0
2017-Sep-15 21:01N 47°44' W 003°22'0 0.0
2017-Sep-15 20:31N 47°44' W 003°22'0 0.0
2017-Sep-15 20:01N 47°44' W 003°22'0 0.0
2017-Sep-15 19:31N 47°44' W 003°22'0 0.0
2017-Sep-15 19:01N 47°44' W 003°22'0 0.0
2017-Sep-15 18:31N 47°44' W 003°22'0 0.0
2017-Sep-15 18:01N 47°44' W 003°22'0 0.0
2017-Sep-15 17:31N 47°44' W 003°22'0 0.0
2017-Sep-15 17:01N 47°44' W 003°22'0 0.0
2017-Sep-15 16:31N 47°44' W 003°22'0 0.0
2017-Sep-15 16:01N 47°44' W 003°22'0 0.0
2017-Sep-15 15:31N 47°44' W 003°22'0 0.0
2017-Sep-15 15:01N 47°44' W 003°22'0 0.0
2017-Sep-15 14:31N 47°44' W 003°22'0 0.0
2017-Sep-15 14:01N 47°44' W 003°22'0 0.0
2017-Sep-15 13:30N 47°44' W 003°22'0 0.0
2017-Sep-15 13:01N 47°44' W 003°22'0 0.0
2017-Sep-15 12:31N 47°44' W 003°22'0 0.0
2017-Sep-15 12:01N 47°44' W 003°22'0 0.0
2017-Sep-15 11:31N 47°44' W 003°22'0 0.0
2017-Sep-15 11:00N 47°44' W 003°22'0 0.0
2017-Sep-15 10:31N 47°44' W 003°22'0 0.0
2017-Sep-15 10:01N 47°44' W 003°22'0 0.0
2017-Sep-15 09:31N 47°44' W 003°22'0 0.0
2017-Sep-15 09:01N 47°44' W 003°22'0 0.0
2017-Sep-15 08:30N 47°44' W 003°22'0 0.0
2017-Sep-15 08:01N 47°44' W 003°22'0 0.0
2017-Sep-15 07:31N 47°44' W 003°22'0 0.0
2017-Sep-15 07:00N 47°44' W 003°22'0 0.0
2017-Sep-15 06:31N 47°44' W 003°22'0 0.0
2017-Sep-15 06:01N 47°44' W 003°22'0 0.0
2017-Sep-15 05:31N 47°44' W 003°22'0 0.0
2017-Sep-15 05:01N 47°44' W 003°22'0 0.0
2017-Sep-15 04:31N 47°44' W 003°22'0 0.0
2017-Sep-15 04:01N 47°44' W 003°22'0 0.0
2017-Sep-15 03:31N 47°44' W 003°22'0 0.0
2017-Sep-15 03:01N 47°44' W 003°22'0 0.0
2017-Sep-15 02:31N 47°44' W 003°22'0 0.0
2017-Sep-15 02:01N 47°44' W 003°22'0 0.0
2017-Sep-15 01:31N 47°44' W 003°22'0 0.0
2017-Sep-15 01:01N 47°44' W 003°22'0 0.0
2017-Sep-15 00:31N 47°44' W 003°22'0 0.0
2017-Sep-15 00:01N 47°44' W 003°22'0 0.0
2017-Sep-14 23:30N 47°44' W 003°22'0 0.0
2017-Sep-14 23:01N 47°44' W 003°22'0 0.0
2017-Sep-14 22:31N 47°44' W 003°22'0 0.0
2017-Sep-14 22:00N 47°44' W 003°22'0 0.0
2017-Sep-14 21:31N 47°44' W 003°22'0 0.0
2017-Sep-14 21:01N 47°44' W 003°22'0 0.0
2017-Sep-14 20:31N 47°44' W 003°22'0 0.0
2017-Sep-14 20:00N 47°44' W 003°22'0 0.0
2017-Sep-14 19:30N 47°44' W 003°22'0 0.0
2017-Sep-14 19:01N 47°44' W 003°22'0 0.0
2017-Sep-14 18:31N 47°44' W 003°22'0 0.0
2017-Sep-14 18:01N 47°44' W 003°22'0 0.0
2017-Sep-14 17:31N 47°44' W 003°22'0 0.0
2017-Sep-14 17:01N 47°44' W 003°22'0 0.0
2017-Sep-14 16:31N 47°44' W 003°22'0 0.0
2017-Sep-14 16:00N 47°44' W 003°22'0 0.0
2017-Sep-14 15:31N 47°44' W 003°22'0 0.0
2017-Sep-14 15:01N 47°44' W 003°22'0 0.0
2017-Sep-14 14:30N 47°44' W 003°22'  

Dump ship's entire track history